Sign in

Goboko Update

Goboko is set to continue

The Goboko booking system is to continue under a new operator, a member of one of our longest-subscribed flying clubs

The new and previous operators of the site are working to ensure there will be no interruption to your booking service as the transition takes place. Of course, aircraft booking will continue to be free

Thank you for your continued commitment to Goboko

Info

Aviation weather

METAR KDAB 142053Z 05008KT 10SM BKN019 BKN027 26/23 A3001 RMK AO2 RAB22E25 SLP162 P0000 60000 T02610233 56019

TAF KDAB 141748Z 1418/1518 02010KT P6SM VCSH SCT025 BKN050 TEMPO 1418/1421 5SM SHRA BKN025 OVC050 FM142200 04010KT P6SM BKN050 FM150500 16005KT 5SM -RA SCT020 BKN040 OVC080 FM151000 25007KT P6SM BKN015 OVC030 FM151500 31010KT P6SM SCT015 BKN025 OVC040

Aviation weather from ADDS. Re-check weather before flight.

-